sensor_id;sensor_type;location;lat;lon;timestamp;P1;durP1;ratioP1;P2;durP2;ratioP2
18188;SDS011;9219;50.396;8.546;2023-04-25T00:01:57;39.43;;;18.33;;
18188;SDS011;9219;50.396;8.546;2023-04-25T00:04:25;28.27;;;14.47;;
18188;SDS011;9219;50.396;8.546;2023-04-25T00:06:56;25.40;;;15.13;;
18188;SDS011;9219;50.396;8.546;2023-04-25T00:09:23;26.07;;;14.47;;
18188;SDS011;9219;50.396;8.546;2023-04-25T00:11:51;30.40;;;15.47;;
18188;SDS011;9219;50.396;8.546;2023-04-25T00:14:18;28.23;;;15.17;;
18188;SDS011;9219;50.396;8.546;2023-04-25T00:16:45;30.30;;;15.60;;
18188;SDS011;9219;50.396;8.546;2023-04-25T00:27:24;27.43;;;13.43;;
18188;SDS011;9219;50.396;8.546;2023-04-25T00:29:51;26.80;;;15.57;;
18188;SDS011;9219;50.396;8.546;2023-04-25T00:32:19;30.00;;;14.77;;
18188;SDS011;9219;50.396;8.546;2023-04-25T00:34:47;24.27;;;14.83;;
18188;SDS011;9219;50.396;8.546;2023-04-25T00:37:14;27.30;;;14.27;;
18188;SDS011;9219;50.396;8.546;2023-04-25T00:39:41;31.53;;;15.83;;
18188;SDS011;9219;50.396;8.546;2023-04-25T00:42:09;29.20;;;14.33;;
18188;SDS011;9219;50.396;8.546;2023-04-25T00:44:39;34.30;;;15.20;;
18188;SDS011;9219;50.396;8.546;2023-04-25T00:52:37;35.30;;;16.53;;
18188;SDS011;9219;50.396;8.546;2023-04-25T00:55:06;29.10;;;15.73;;
18188;SDS011;9219;50.396;8.546;2023-04-25T00:57:34;32.03;;;15.73;;
18188;SDS011;9219;50.396;8.546;2023-04-25T01:00:02;37.10;;;17.83;;
18188;SDS011;9219;50.396;8.546;2023-04-25T01:02:31;50.87;;;18.03;;
18188;SDS011;9219;50.396;8.546;2023-04-25T01:04:59;32.43;;;17.13;;
18188;SDS011;9219;50.396;8.546;2023-04-25T01:07:26;32.97;;;17.27;;
18188;SDS011;9219;50.396;8.546;2023-04-25T01:09:55;37.50;;;17.83;;
18188;SDS011;9219;50.396;8.546;2023-04-25T01:17:38;31.10;;;15.27;;
18188;SDS011;9219;50.396;8.546;2023-04-25T01:20:07;28.30;;;15.93;;
18188;SDS011;9219;50.396;8.546;2023-04-25T01:22:37;28.50;;;14.73;;
18188;SDS011;9219;50.396;8.546;2023-04-25T01:25:05;30.13;;;15.07;;
18188;SDS011;9219;50.396;8.546;2023-04-25T01:27:33;36.20;;;16.67;;
18188;SDS011;9219;50.396;8.546;2023-04-25T01:30:00;27.37;;;13.93;;
18188;SDS011;9219;50.396;8.546;2023-04-25T01:32:29;25.43;;;13.70;;
18188;SDS011;9219;50.396;8.546;2023-04-25T01:35:04;30.27;;;14.60;;
18188;SDS011;9219;50.396;8.546;2023-04-25T01:42:40;26.30;;;12.60;;
18188;SDS011;9219;50.396;8.546;2023-04-25T01:45:11;27.33;;;12.70;;
18188;SDS011;9219;50.396;8.546;2023-04-25T01:47:39;27.40;;;12.43;;
18188;SDS011;9219;50.396;8.546;2023-04-25T01:50:07;31.47;;;12.33;;
18188;SDS011;9219;50.396;8.546;2023-04-25T01:52:35;23.83;;;12.43;;
18188;SDS011;9219;50.396;8.546;2023-04-25T01:55:03;20.03;;;11.70;;
18188;SDS011;9219;50.396;8.546;2023-04-25T01:57:32;22.57;;;11.60;;
18188;SDS011;9219;50.396;8.546;2023-04-25T02:00:02;24.87;;;12.13;;
18188;SDS011;9219;50.396;8.546;2023-04-25T02:07:51;24.40;;;11.23;;
18188;SDS011;9219;50.396;8.546;2023-04-25T02:10:19;24.57;;;10.60;;
18188;SDS011;9219;50.396;8.546;2023-04-25T02:12:46;18.80;;;10.37;;
18188;SDS011;9219;50.396;8.546;2023-04-25T02:15:13;18.07;;;10.37;;
18188;SDS011;9219;50.396;8.546;2023-04-25T02:17:41;24.50;;;11.60;;
18188;SDS011;9219;50.396;8.546;2023-04-25T02:20:09;21.97;;;9.47;;
18188;SDS011;9219;50.396;8.546;2023-04-25T02:22:36;18.60;;;8.73;;
18188;SDS011;9219;50.396;8.546;2023-04-25T02:25:07;24.80;;;11.00;;
18188;SDS011;9219;50.396;8.546;2023-04-25T02:33:04;23.67;;;10.97;;
18188;SDS011;9219;50.396;8.546;2023-04-25T02:35:31;24.87;;;10.00;;
18188;SDS011;9219;50.396;8.546;2023-04-25T02:37:59;25.03;;;9.50;;
18188;SDS011;9219;50.396;8.546;2023-04-25T02:40:26;25.53;;;11.33;;
18188;SDS011;9219;50.396;8.546;2023-04-25T02:42:53;25.17;;;10.50;;
18188;SDS011;9219;50.396;8.546;2023-04-25T02:45:21;18.70;;;10.13;;
18188;SDS011;9219;50.396;8.546;2023-04-25T02:47:48;27.17;;;11.27;;
18188;SDS011;9219;50.396;8.546;2023-04-25T02:50:16;21.50;;;9.87;;
18188;SDS011;9219;50.396;8.546;2023-04-25T02:57:48;28.07;;;12.87;;
18188;SDS011;9219;50.396;8.546;2023-04-25T03:00:16;26.80;;;12.90;;
18188;SDS011;9219;50.396;8.546;2023-04-25T03:02:43;25.97;;;12.60;;
18188;SDS011;9219;50.396;8.546;2023-04-25T03:05:11;38.23;;;13.97;;
18188;SDS011;9219;50.396;8.546;2023-04-25T03:07:38;35.70;;;15.20;;
18188;SDS011;9219;50.396;8.546;2023-04-25T03:10:06;26.03;;;12.40;;
18188;SDS011;9219;50.396;8.546;2023-04-25T03:12:34;40.20;;;16.87;;
18188;SDS011;9219;50.396;8.546;2023-04-25T03:15:04;34.97;;;14.83;;
18188;SDS011;9219;50.396;8.546;2023-04-25T03:23:01;37.33;;;14.93;;
18188;SDS011;9219;50.396;8.546;2023-04-25T03:25:28;36.90;;;14.27;;
18188;SDS011;9219;50.396;8.546;2023-04-25T03:27:56;38.63;;;14.00;;
18188;SDS011;9219;50.396;8.546;2023-04-25T03:30:24;43.83;;;16.17;;
18188;SDS011;9219;50.396;8.546;2023-04-25T03:32:51;38.53;;;16.30;;
18188;SDS011;9219;50.396;8.546;2023-04-25T03:35:19;29.73;;;13.37;;
18188;SDS011;9219;50.396;8.546;2023-04-25T03:37:46;38.50;;;16.50;;
18188;SDS011;9219;50.396;8.546;2023-04-25T03:40:15;47.97;;;16.23;;
18188;SDS011;9219;50.396;8.546;2023-04-25T03:48:02;44.43;;;16.67;;
18188;SDS011;9219;50.396;8.546;2023-04-25T03:50:30;45.07;;;17.07;;
18188;SDS011;9219;50.396;8.546;2023-04-25T03:52:58;44.90;;;16.87;;
18188;SDS011;9219;50.396;8.546;2023-04-25T03:55:26;42.50;;;17.50;;
18188;SDS011;9219;50.396;8.546;2023-04-25T03:57:53;43.13;;;15.93;;
18188;SDS011;9219;50.396;8.546;2023-04-25T04:00:20;45.00;;;15.07;;
18188;SDS011;9219;50.396;8.546;2023-04-25T04:02:50;46.70;;;14.87;;
18188;SDS011;9219;50.396;8.546;2023-04-25T04:07:57;41.23;;;17.17;;
18188;SDS011;9219;50.396;8.546;2023-04-25T04:10:24;39.57;;;15.27;;
18188;SDS011;9219;50.396;8.546;2023-04-25T04:12:51;34.20;;;16.17;;
18188;SDS011;9219;50.396;8.546;2023-04-25T04:15:19;47.83;;;14.53;;
18188;SDS011;9219;50.396;8.546;2023-04-25T04:17:47;45.10;;;16.10;;
18188;SDS011;9219;50.396;8.546;2023-04-25T04:20:15;38.03;;;16.20;;
18188;SDS011;9219;50.396;8.546;2023-04-25T04:22:42;37.23;;;14.07;;
18188;SDS011;9219;50.396;8.546;2023-04-25T04:25:11;35.30;;;15.73;;
18188;SDS011;9219;50.396;8.546;2023-04-25T04:32:44;28.53;;;12.07;;
18188;SDS011;9219;50.396;8.546;2023-04-25T04:35:12;29.67;;;12.37;;
18188;SDS011;9219;50.396;8.546;2023-04-25T04:37:39;32.10;;;11.13;;
18188;SDS011;9219;50.396;8.546;2023-04-25T04:40:07;20.73;;;10.13;;
18188;SDS011;9219;50.396;8.546;2023-04-25T04:42:36;19.03;;;9.27;;
18188;SDS011;9219;50.396;8.546;2023-04-25T04:45:04;23.73;;;10.93;;
18188;SDS011;9219;50.396;8.546;2023-04-25T04:47:31;23.23;;;10.27;;
18188;SDS011;9219;50.396;8.546;2023-04-25T04:50:00;25.53;;;9.73;;
18188;SDS011;9219;50.396;8.546;2023-04-25T04:57:34;16.23;;;8.37;;
18188;SDS011;9219;50.396;8.546;2023-04-25T05:00:04;22.90;;;8.27;;
18188;SDS011;9219;50.396;8.546;2023-04-25T05:02:36;12.63;;;6.67;;
18188;SDS011;9219;50.396;8.546;2023-04-25T05:05:05;16.63;;;7.37;;
18188;SDS011;9219;50.396;8.546;2023-04-25T05:07:33;22.00;;;8.40;;
18188;SDS011;9219;50.396;8.546;2023-04-25T05:10:00;17.60;;;8.63;;
18188;SDS011;9219;50.396;8.546;2023-04-25T05:12:28;14.13;;;7.30;;
18188;SDS011;9219;50.396;8.546;2023-04-25T05:14:57;28.70;;;7.90;;
18188;SDS011;9219;50.396;8.546;2023-04-25T05:22:57;13.73;;;6.87;;
18188;SDS011;9219;50.396;8.546;2023-04-25T05:25:26;16.83;;;6.90;;
18188;SDS011;9219;50.396;8.546;2023-04-25T05:27:54;13.17;;;6.87;;
18188;SDS011;9219;50.396;8.546;2023-04-25T05:30:22;12.83;;;5.73;;
18188;SDS011;9219;50.396;8.546;2023-04-25T05:32:50;19.70;;;6.30;;
18188;SDS011;9219;50.396;8.546;2023-04-25T05:35:17;15.70;;;6.23;;
18188;SDS011;9219;50.396;8.546;2023-04-25T05:37:44;19.50;;;5.93;;
18188;SDS011;9219;50.396;8.546;2023-04-25T05:43:08;11.00;;;6.30;;
18188;SDS011;9219;50.396;8.546;2023-04-25T05:45:35;8.90;;;5.37;;
18188;SDS011;9219;50.396;8.546;2023-04-25T05:48:02;12.30;;;6.03;;
18188;SDS011;9219;50.396;8.546;2023-04-25T05:50:30;11.70;;;5.40;;
18188;SDS011;9219;50.396;8.546;2023-04-25T05:52:57;22.53;;;7.10;;
18188;SDS011;9219;50.396;8.546;2023-04-25T05:55:24;13.70;;;6.20;;
18188;SDS011;9219;50.396;8.546;2023-04-25T05:57:52;13.53;;;6.27;;
18188;SDS011;9219;50.396;8.546;2023-04-25T06:00:20;17.97;;;5.90;;
18188;SDS011;9219;50.396;8.546;2023-04-25T06:07:53;14.50;;;6.97;;
18188;SDS011;9219;50.396;8.546;2023-04-25T06:10:20;18.17;;;6.90;;
18188;SDS011;9219;50.396;8.546;2023-04-25T06:12:49;15.70;;;7.20;;
18188;SDS011;9219;50.396;8.546;2023-04-25T06:15:16;13.40;;;6.67;;
18188;SDS011;9219;50.396;8.546;2023-04-25T06:17:54;17.07;;;7.30;;
18188;SDS011;9219;50.396;8.546;2023-04-25T06:20:21;12.97;;;7.00;;
18188;SDS011;9219;50.396;8.546;2023-04-25T06:22:50;18.03;;;8.27;;
18188;SDS011;9219;50.396;8.546;2023-04-25T06:25:20;19.83;;;7.77;;
18188;SDS011;9219;50.396;8.546;2023-04-25T06:28:15;14.13;;;5.73;;
18188;SDS011;9219;50.396;8.546;2023-04-25T06:30:43;17.23;;;7.20;;
18188;SDS011;9219;50.396;8.546;2023-04-25T06:33:11;20.00;;;7.37;;
18188;SDS011;9219;50.396;8.546;2023-04-25T06:35:38;16.70;;;6.53;;
18188;SDS011;9219;50.396;8.546;2023-04-25T06:38:05;20.67;;;7.87;;
18188;SDS011;9219;50.396;8.546;2023-04-25T06:40:33;19.80;;;5.67;;
18188;SDS011;9219;50.396;8.546;2023-04-25T06:43:00;14.87;;;6.70;;
18188;SDS011;9219;50.396;8.546;2023-04-25T06:45:29;17.07;;;7.40;;
18188;SDS011;9219;50.396;8.546;2023-04-25T06:48:09;19.20;;;7.33;;
18188;SDS011;9219;50.396;8.546;2023-04-25T06:50:37;25.17;;;6.77;;
18188;SDS011;9219;50.396;8.546;2023-04-25T06:53:04;20.03;;;6.23;;
18188;SDS011;9219;50.396;8.546;2023-04-25T06:55:32;15.37;;;6.43;;
18188;SDS011;9219;50.396;8.546;2023-04-25T06:58:00;12.43;;;6.40;;
18188;SDS011;9219;50.396;8.546;2023-04-25T07:00:28;14.53;;;6.23;;
18188;SDS011;9219;50.396;8.546;2023-04-25T07:02:56;18.43;;;5.77;;
18188;SDS011;9219;50.396;8.546;2023-04-25T07:08:06;7.53;;;4.73;;
18188;SDS011;9219;50.396;8.546;2023-04-25T07:10:34;11.20;;;5.47;;
18188;SDS011;9219;50.396;8.546;2023-04-25T07:13:01;20.23;;;5.63;;
18188;SDS011;9219;50.396;8.546;2023-04-25T07:15:28;9.73;;;4.70;;
18188;SDS011;9219;50.396;8.546;2023-04-25T07:17:56;17.20;;;5.43;;
18188;SDS011;9219;50.396;8.546;2023-04-25T07:20:23;14.60;;;6.03;;
18188;SDS011;9219;50.396;8.546;2023-04-25T07:22:50;8.70;;;5.07;;
18188;SDS011;9219;50.396;8.546;2023-04-25T07:25:19;16.27;;;6.67;;
18188;SDS011;9219;50.396;8.546;2023-04-25T07:35:46;14.93;;;5.37;;
18188;SDS011;9219;50.396;8.546;2023-04-25T07:38:14;13.20;;;5.53;;
18188;SDS011;9219;50.396;8.546;2023-04-25T07:40:42;12.40;;;5.37;;
18188;SDS011;9219;50.396;8.546;2023-04-25T07:43:09;12.10;;;5.20;;
18188;SDS011;9219;50.396;8.546;2023-04-25T07:45:37;13.50;;;5.97;;
18188;SDS011;9219;50.396;8.546;2023-04-25T07:48:04;9.60;;;5.67;;
18188;SDS011;9219;50.396;8.546;2023-04-25T07:56:08;8.60;;;5.77;;
18188;SDS011;9219;50.396;8.546;2023-04-25T07:58:39;9.57;;;5.03;;
18188;SDS011;9219;50.396;8.546;2023-04-25T08:01:07;15.27;;;6.23;;
18188;SDS011;9219;50.396;8.546;2023-04-25T08:03:34;13.50;;;4.70;;
18188;SDS011;9219;50.396;8.546;2023-04-25T08:06:02;10.77;;;5.93;;
18188;SDS011;9219;50.396;8.546;2023-04-25T08:08:33;9.13;;;4.70;;
18188;SDS011;9219;50.396;8.546;2023-04-25T08:11:01;8.97;;;4.63;;
18188;SDS011;9219;50.396;8.546;2023-04-25T08:13:30;9.80;;;5.63;;
18188;SDS011;9219;50.396;8.546;2023-04-25T08:16:22;10.93;;;5.70;;
18188;SDS011;9219;50.396;8.546;2023-04-25T08:18:49;7.37;;;5.37;;
18188;SDS011;9219;50.396;8.546;2023-04-25T08:21:17;9.83;;;5.13;;
18188;SDS011;9219;50.396;8.546;2023-04-25T08:23:45;8.03;;;4.70;;
18188;SDS011;9219;50.396;8.546;2023-04-25T08:26:12;5.87;;;3.67;;
18188;SDS011;9219;50.396;8.546;2023-04-25T08:28:39;11.93;;;5.20;;
18188;SDS011;9219;50.396;8.546;2023-04-25T08:31:06;7.40;;;4.50;;
18188;SDS011;9219;50.396;8.546;2023-04-25T08:33:35;9.20;;;5.17;;
18188;SDS011;9219;50.396;8.546;2023-04-25T08:44:03;10.70;;;5.30;;
18188;SDS011;9219;50.396;8.546;2023-04-25T08:46:31;8.33;;;4.67;;
18188;SDS011;9219;50.396;8.546;2023-04-25T08:49:00;7.77;;;5.00;;
18188;SDS011;9219;50.396;8.546;2023-04-25T08:51:28;10.23;;;4.40;;
18188;SDS011;9219;50.396;8.546;2023-04-25T08:54:00;11.80;;;5.10;;
18188;SDS011;9219;50.396;8.546;2023-04-25T08:56:56;8.73;;;4.30;;
18188;SDS011;9219;50.396;8.546;2023-04-25T09:06:55;11.20;;;5.53;;
18188;SDS011;9219;50.396;8.546;2023-04-25T09:09:25;7.30;;;4.40;;
18188;SDS011;9219;50.396;8.546;2023-04-25T09:11:53;11.47;;;4.80;;
18188;SDS011;9219;50.396;8.546;2023-04-25T09:14:21;7.80;;;4.20;;
18188;SDS011;9219;50.396;8.546;2023-04-25T09:16:58;12.47;;;5.03;;
18188;SDS011;9219;50.396;8.546;2023-04-25T09:19:27;9.50;;;4.13;;
18188;SDS011;9219;50.396;8.546;2023-04-25T09:22:00;8.77;;;3.93;;
18188;SDS011;9219;50.396;8.546;2023-04-25T09:27:50;7.83;;;4.50;;
18188;SDS011;9219;50.396;8.546;2023-04-25T09:30:18;8.83;;;4.00;;
18188;SDS011;9219;50.396;8.546;2023-04-25T09:32:56;12.10;;;3.93;;
18188;SDS011;9219;50.396;8.546;2023-04-25T09:35:24;9.97;;;3.67;;
18188;SDS011;9219;50.396;8.546;2023-04-25T09:37:53;4.30;;;2.80;;
18188;SDS011;9219;50.396;8.546;2023-04-25T09:40:22;5.37;;;2.93;;
18188;SDS011;9219;50.396;8.546;2023-04-25T09:42:50;6.90;;;3.47;;
18188;SDS011;9219;50.396;8.546;2023-04-25T09:45:20;5.67;;;3.20;;
18188;SDS011;9219;50.396;8.546;2023-04-25T09:53:03;5.90;;;2.73;;
18188;SDS011;9219;50.396;8.546;2023-04-25T09:55:31;9.10;;;3.67;;
18188;SDS011;9219;50.396;8.546;2023-04-25T09:58:01;9.37;;;3.13;;
18188;SDS011;9219;50.396;8.546;2023-04-25T10:00:31;8.20;;;3.30;;
18188;SDS011;9219;50.396;8.546;2023-04-25T10:03:00;11.43;;;4.07;;
18188;SDS011;9219;50.396;8.546;2023-04-25T10:05:30;10.67;;;4.20;;
18188;SDS011;9219;50.396;8.546;2023-04-25T10:07:59;10.30;;;4.03;;
18188;SDS011;9219;50.396;8.546;2023-04-25T10:15:35;12.60;;;3.40;;
18188;SDS011;9219;50.396;8.546;2023-04-25T10:18:06;9.93;;;3.50;;
18188;SDS011;9219;50.396;8.546;2023-04-25T10:20:33;5.47;;;2.90;;
18188;SDS011;9219;50.396;8.546;2023-04-25T10:23:03;5.43;;;2.87;;
18188;SDS011;9219;50.396;8.546;2023-04-25T10:25:37;9.23;;;3.40;;
18188;SDS011;9219;50.396;8.546;2023-04-25T10:28:06;5.87;;;2.67;;
18188;SDS011;9219;50.396;8.546;2023-04-25T10:30:33;8.30;;;2.73;;
18188;SDS011;9219;50.396;8.546;2023-04-25T10:43:37;11.40;;;2.73;;
18188;SDS011;9219;50.396;8.546;2023-04-25T10:46:13;5.60;;;2.40;;
18188;SDS011;9219;50.396;8.546;2023-04-25T10:48:50;6.27;;;1.97;;
18188;SDS011;9219;50.396;8.546;2023-04-25T10:51:19;8.50;;;2.87;;
18188;SDS011;9219;50.396;8.546;2023-04-25T10:53:56;8.27;;;2.20;;
18188;SDS011;9219;50.396;8.546;2023-04-25T10:56:27;8.13;;;2.17;;
18188;SDS011;9219;50.396;8.546;2023-04-25T11:07:09;3.50;;;2.10;;
18188;SDS011;9219;50.396;8.546;2023-04-25T11:09:44;5.50;;;2.03;;
18188;SDS011;9219;50.396;8.546;2023-04-25T11:12:12;4.07;;;2.33;;
18188;SDS011;9219;50.396;8.546;2023-04-25T11:14:39;4.47;;;2.20;;
18188;SDS011;9219;50.396;8.546;2023-04-25T11:17:07;5.20;;;2.33;;
18188;SDS011;9219;50.396;8.546;2023-04-25T11:19:35;6.43;;;2.17;;
18188;SDS011;9219;50.396;8.546;2023-04-25T11:29:55;5.83;;;2.40;;
18188;SDS011;9219;50.396;8.546;2023-04-25T11:32:23;8.53;;;2.37;;
18188;SDS011;9219;50.396;8.546;2023-04-25T11:34:52;8.40;;;2.57;;
18188;SDS011;9219;50.396;8.546;2023-04-25T11:37:21;12.70;;;2.87;;
18188;SDS011;9219;50.396;8.546;2023-04-25T11:39:48;8.63;;;2.00;;
18188;SDS011;9219;50.396;8.546;2023-04-25T11:42:15;7.83;;;2.83;;
18188;SDS011;9219;50.396;8.546;2023-04-25T11:44:43;7.37;;;2.30;;
18188;SDS011;9219;50.396;8.546;2023-04-25T11:55:25;5.80;;;3.17;;
18188;SDS011;9219;50.396;8.546;2023-04-25T11:57:52;8.10;;;2.73;;
18188;SDS011;9219;50.396;8.546;2023-04-25T12:00:20;9.73;;;2.50;;
18188;SDS011;9219;50.396;8.546;2023-04-25T12:02:50;8.23;;;2.57;;
18188;SDS011;9219;50.396;8.546;2023-04-25T12:05:18;10.20;;;3.40;;
18188;SDS011;9219;50.396;8.546;2023-04-25T12:08:09;6.10;;;2.50;;
18188;SDS011;9219;50.396;8.546;2023-04-25T12:10:44;11.43;;;3.23;;
18188;SDS011;9219;50.396;8.546;2023-04-25T12:16:08;9.10;;;2.80;;
18188;SDS011;9219;50.396;8.546;2023-04-25T12:18:35;10.97;;;3.07;;
18188;SDS011;9219;50.396;8.546;2023-04-25T12:21:02;7.83;;;3.13;;
18188;SDS011;9219;50.396;8.546;2023-04-25T12:23:31;5.43;;;3.00;;
18188;SDS011;9219;50.396;8.546;2023-04-25T12:25:58;5.27;;;3.57;;
18188;SDS011;9219;50.396;8.546;2023-04-25T12:28:28;5.40;;;3.67;;
18188;SDS011;9219;50.396;8.546;2023-04-25T12:30:59;7.50;;;3.43;;
18188;SDS011;9219;50.396;8.546;2023-04-25T12:33:30;5.00;;;2.60;;
18188;SDS011;9219;50.396;8.546;2023-04-25T12:41:04;11.87;;;3.83;;
18188;SDS011;9219;50.396;8.546;2023-04-25T12:43:31;4.83;;;2.67;;
18188;SDS011;9219;50.396;8.546;2023-04-25T12:45:59;4.40;;;2.57;;
18188;SDS011;9219;50.396;8.546;2023-04-25T12:48:30;8.07;;;2.70;;
18188;SDS011;9219;50.396;8.546;2023-04-25T12:50:57;7.97;;;2.60;;
18188;SDS011;9219;50.396;8.546;2023-04-25T12:53:26;3.97;;;2.70;;
18188;SDS011;9219;50.396;8.546;2023-04-25T12:55:54;7.90;;;3.07;;
18188;SDS011;9219;50.396;8.546;2023-04-25T12:58:23;5.33;;;1.97;;
18188;SDS011;9219;50.396;8.546;2023-04-25T13:05:55;3.60;;;2.30;;
18188;SDS011;9219;50.396;8.546;2023-04-25T13:08:23;5.43;;;2.90;;
18188;SDS011;9219;50.396;8.546;2023-04-25T13:10:51;7.67;;;2.43;;
18188;SDS011;9219;50.396;8.546;2023-04-25T13:13:19;4.37;;;2.30;;
18188;SDS011;9219;50.396;8.546;2023-04-25T13:15:46;9.80;;;2.87;;
18188;SDS011;9219;50.396;8.546;2023-04-25T13:18:14;3.73;;;2.23;;
18188;SDS011;9219;50.396;8.546;2023-04-25T13:20:41;2.80;;;2.23;;
18188;SDS011;9219;50.396;8.546;2023-04-25T13:25:50;3.87;;;2.30;;
18188;SDS011;9219;50.396;8.546;2023-04-25T13:28:18;4.40;;;2.20;;
18188;SDS011;9219;50.396;8.546;2023-04-25T13:30:45;6.33;;;2.10;;
18188;SDS011;9219;50.396;8.546;2023-04-25T13:33:14;6.90;;;1.80;;
18188;SDS011;9219;50.396;8.546;2023-04-25T13:35:41;3.00;;;2.10;;
18188;SDS011;9219;50.396;8.546;2023-04-25T13:38:12;3.20;;;1.77;;
18188;SDS011;9219;50.396;8.546;2023-04-25T13:40:39;2.67;;;1.83;;
18188;SDS011;9219;50.396;8.546;2023-04-25T13:45:47;2.30;;;1.70;;
18188;SDS011;9219;50.396;8.546;2023-04-25T13:48:15;12.73;;;2.77;;
18188;SDS011;9219;50.396;8.546;2023-04-25T13:50:42;5.03;;;1.77;;
18188;SDS011;9219;50.396;8.546;2023-04-25T13:53:10;3.60;;;2.20;;
18188;SDS011;9219;50.396;8.546;2023-04-25T13:55:38;7.83;;;2.80;;
18188;SDS011;9219;50.396;8.546;2023-04-25T13:58:05;13.67;;;2.70;;
18188;SDS011;9219;50.396;8.546;2023-04-25T14:00:35;4.97;;;2.27;;
18188;SDS011;9219;50.396;8.546;2023-04-25T14:03:06;4.20;;;1.80;;
18188;SDS011;9219;50.396;8.546;2023-04-25T14:11:08;5.47;;;2.33;;
18188;SDS011;9219;50.396;8.546;2023-04-25T14:13:35;11.80;;;2.43;;
18188;SDS011;9219;50.396;8.546;2023-04-25T14:16:02;3.60;;;1.77;;
18188;SDS011;9219;50.396;8.546;2023-04-25T14:18:30;5.43;;;2.27;;
18188;SDS011;9219;50.396;8.546;2023-04-25T14:20:58;6.00;;;2.23;;
18188;SDS011;9219;50.396;8.546;2023-04-25T14:23:25;3.50;;;1.90;;
18188;SDS011;9219;50.396;8.546;2023-04-25T14:25:52;6.70;;;2.43;;
18188;SDS011;9219;50.396;8.546;2023-04-25T14:28:20;2.70;;;2.10;;
18188;SDS011;9219;50.396;8.546;2023-04-25T14:35:52;7.03;;;2.30;;
18188;SDS011;9219;50.396;8.546;2023-04-25T14:38:21;4.97;;;2.50;;
18188;SDS011;9219;50.396;8.546;2023-04-25T14:40:50;4.13;;;1.77;;
18188;SDS011;9219;50.396;8.546;2023-04-25T14:43:19;3.53;;;1.90;;
18188;SDS011;9219;50.396;8.546;2023-04-25T14:45:46;9.93;;;2.17;;
18188;SDS011;9219;50.396;8.546;2023-04-25T14:48:15;6.43;;;2.40;;
18188;SDS011;9219;50.396;8.546;2023-04-25T14:50:45;8.13;;;2.10;;
18188;SDS011;9219;50.396;8.546;2023-04-25T14:55:52;6.03;;;3.17;;
18188;SDS011;9219;50.396;8.546;2023-04-25T14:58:19;2.60;;;1.73;;
18188;SDS011;9219;50.396;8.546;2023-04-25T15:00:47;3.80;;;1.80;;
18188;SDS011;9219;50.396;8.546;2023-04-25T15:03:14;7.73;;;3.10;;
18188;SDS011;9219;50.396;8.546;2023-04-25T15:05:43;5.70;;;2.13;;
18188;SDS011;9219;50.396;8.546;2023-04-25T15:08:13;4.87;;;1.90;;
18188;SDS011;9219;50.396;8.546;2023-04-25T15:10:45;7.30;;;2.20;;
18188;SDS011;9219;50.396;8.546;2023-04-25T15:16:06;5.13;;;2.00;;
18188;SDS011;9219;50.396;8.546;2023-04-25T15:18:36;3.63;;;1.90;;
18188;SDS011;9219;50.396;8.546;2023-04-25T15:21:06;11.20;;;2.43;;
18188;SDS011;9219;50.396;8.546;2023-04-25T15:23:33;4.87;;;2.10;;
18188;SDS011;9219;50.396;8.546;2023-04-25T15:26:02;5.93;;;1.60;;
18188;SDS011;9219;50.396;8.546;2023-04-25T15:28:30;4.60;;;1.77;;
18188;SDS011;9219;50.396;8.546;2023-04-25T15:30:59;3.47;;;1.90;;
18188;SDS011;9219;50.396;8.546;2023-04-25T15:38:38;4.70;;;2.20;;
18188;SDS011;9219;50.396;8.546;2023-04-25T15:41:08;7.37;;;2.20;;
18188;SDS011;9219;50.396;8.546;2023-04-25T15:43:36;2.53;;;1.80;;
18188;SDS011;9219;50.396;8.546;2023-04-25T15:46:03;10.37;;;3.53;;
18188;SDS011;9219;50.396;8.546;2023-04-25T15:48:31;7.90;;;1.97;;
18188;SDS011;9219;50.396;8.546;2023-04-25T15:51:00;6.73;;;2.50;;
18188;SDS011;9219;50.396;8.546;2023-04-25T15:53:29;5.13;;;1.90;;
18188;SDS011;9219;50.396;8.546;2023-04-25T15:56:00;6.63;;;2.53;;
18188;SDS011;9219;50.396;8.546;2023-04-25T15:58:41;4.07;;;1.80;;
18188;SDS011;9219;50.396;8.546;2023-04-25T16:01:16;4.13;;;1.73;;
18188;SDS011;9219;50.396;8.546;2023-04-25T16:03:46;2.90;;;1.90;;
18188;SDS011;9219;50.396;8.546;2023-04-25T16:06:14;3.53;;;1.87;;
18188;SDS011;9219;50.396;8.546;2023-04-25T16:08:43;6.70;;;1.97;;
18188;SDS011;9219;50.396;8.546;2023-04-25T16:11:13;6.93;;;2.00;;
18188;SDS011;9219;50.396;8.546;2023-04-25T16:13:42;6.97;;;2.13;;
18188;SDS011;9219;50.396;8.546;2023-04-25T16:16:09;3.77;;;1.57;;
18188;SDS011;9219;50.396;8.546;2023-04-25T16:23:42;5.67;;;2.33;;
18188;SDS011;9219;50.396;8.546;2023-04-25T16:26:10;9.80;;;2.40;;
18188;SDS011;9219;50.396;8.546;2023-04-25T16:28:39;7.53;;;2.20;;
18188;SDS011;9219;50.396;8.546;2023-04-25T16:31:07;4.53;;;2.03;;
18188;SDS011;9219;50.396;8.546;2023-04-25T16:33:35;4.33;;;1.50;;
18188;SDS011;9219;50.396;8.546;2023-04-25T16:36:03;5.60;;;1.90;;
18188;SDS011;9219;50.396;8.546;2023-04-25T16:38:31;3.90;;;2.00;;
18188;SDS011;9219;50.396;8.546;2023-04-25T16:48:38;5.23;;;2.20;;
18188;SDS011;9219;50.396;8.546;2023-04-25T16:51:05;2.53;;;1.60;;
18188;SDS011;9219;50.396;8.546;2023-04-25T16:53:33;2.90;;;1.60;;
18188;SDS011;9219;50.396;8.546;2023-04-25T16:56:00;8.97;;;2.10;;
18188;SDS011;9219;50.396;8.546;2023-04-25T16:58:27;4.97;;;1.50;;
18188;SDS011;9219;50.396;8.546;2023-04-25T17:00:55;7.27;;;1.90;;
18188;SDS011;9219;50.396;8.546;2023-04-25T17:03:22;4.17;;;1.67;;
18188;SDS011;9219;50.396;8.546;2023-04-25T17:09:06;6.83;;;1.97;;
18188;SDS011;9219;50.396;8.546;2023-04-25T17:11:35;3.40;;;1.40;;
18188;SDS011;9219;50.396;8.546;2023-04-25T17:14:03;6.27;;;2.03;;
18188;SDS011;9219;50.396;8.546;2023-04-25T17:16:34;3.47;;;1.60;;
18188;SDS011;9219;50.396;8.546;2023-04-25T17:19:02;7.63;;;2.00;;
18188;SDS011;9219;50.396;8.546;2023-04-25T17:21:29;5.37;;;2.03;;
18188;SDS011;9219;50.396;8.546;2023-04-25T17:23:57;3.70;;;1.53;;
18188;SDS011;9219;50.396;8.546;2023-04-25T17:29:34;5.37;;;1.63;;
18188;SDS011;9219;50.396;8.546;2023-04-25T17:32:01;3.30;;;1.97;;
18188;SDS011;9219;50.396;8.546;2023-04-25T17:34:29;2.77;;;1.37;;
18188;SDS011;9219;50.396;8.546;2023-04-25T17:36:56;4.40;;;1.37;;
18188;SDS011;9219;50.396;8.546;2023-04-25T17:39:25;6.70;;;1.53;;
18188;SDS011;9219;50.396;8.546;2023-04-25T17:41:52;4.87;;;2.03;;
18188;SDS011;9219;50.396;8.546;2023-04-25T17:44:19;3.40;;;1.60;;
18188;SDS011;9219;50.396;8.546;2023-04-25T17:46:48;8.27;;;1.60;;
18188;SDS011;9219;50.396;8.546;2023-04-25T17:49:28;1.90;;;1.23;;
18188;SDS011;9219;50.396;8.546;2023-04-25T17:51:57;10.40;;;1.93;;
18188;SDS011;9219;50.396;8.546;2023-04-25T17:54:27;4.83;;;1.87;;
18188;SDS011;9219;50.396;8.546;2023-04-25T17:56:54;2.37;;;1.40;;
18188;SDS011;9219;50.396;8.546;2023-04-25T17:59:21;3.00;;;1.57;;
18188;SDS011;9219;50.396;8.546;2023-04-25T18:01:49;2.33;;;1.30;;
18188;SDS011;9219;50.396;8.546;2023-04-25T18:04:16;1.17;;;0.90;;
18188;SDS011;9219;50.396;8.546;2023-04-25T18:06:45;2.17;;;1.37;;
18188;SDS011;9219;50.396;8.546;2023-04-25T18:14:31;3.67;;;1.00;;
18188;SDS011;9219;50.396;8.546;2023-04-25T18:17:00;6.93;;;1.40;;
18188;SDS011;9219;50.396;8.546;2023-04-25T18:19:28;4.83;;;1.13;;
18188;SDS011;9219;50.396;8.546;2023-04-25T18:21:56;5.37;;;1.80;;
18188;SDS011;9219;50.396;8.546;2023-04-25T18:24:25;2.33;;;1.17;;
18188;SDS011;9219;50.396;8.546;2023-04-25T18:26:54;6.83;;;1.60;;
18188;SDS011;9219;50.396;8.546;2023-04-25T18:29:26;6.43;;;1.33;;
18188;SDS011;9219;50.396;8.546;2023-04-25T18:34:40;6.43;;;1.50;;
18188;SDS011;9219;50.396;8.546;2023-04-25T18:37:11;3.20;;;1.87;;
18188;SDS011;9219;50.396;8.546;2023-04-25T18:39:39;3.30;;;1.17;;
18188;SDS011;9219;50.396;8.546;2023-04-25T18:42:06;6.20;;;1.63;;
18188;SDS011;9219;50.396;8.546;2023-04-25T18:44:33;2.07;;;1.77;;